sensor_id;sensor_type;location;lat;lon;timestamp;pressure;altitude;pressure_sealevel;temperature;humidity
20043;BME280;10182;52.896;6.496;2023-11-25T00:03:54;100966.66;;;1.47;100.00
20043;BME280;10182;52.896;6.496;2023-11-25T00:08:57;100961.47;;;1.44;100.00
20043;BME280;10182;52.896;6.496;2023-11-25T00:13:59;100967.56;;;1.43;100.00
20043;BME280;10182;52.896;6.496;2023-11-25T00:19:01;100967.59;;;1.42;100.00
20043;BME280;10182;52.896;6.496;2023-11-25T00:24:07;100964.97;;;1.42;100.00
20043;BME280;10182;52.896;6.496;2023-11-25T00:29:09;100951.09;;;1.38;100.00
20043;BME280;10182;52.896;6.496;2023-11-25T00:34:11;100959.78;;;1.37;100.00
20043;BME280;10182;52.896;6.496;2023-11-25T00:39:14;100959.78;;;1.37;100.00
20043;BME280;10182;52.896;6.496;2023-11-25T00:44:15;100965.84;;;1.39;100.00
20043;BME280;10182;52.896;6.496;2023-11-25T00:49:17;100962.34;;;1.43;100.00
20043;BME280;10182;52.896;6.496;2023-11-25T00:54:21;100954.53;;;1.46;100.00
20043;BME280;10182;52.896;6.496;2023-11-25T00:59:23;100957.06;;;1.56;100.00
20043;BME280;10182;52.896;6.496;2023-11-25T01:04:24;100951.72;;;1.76;100.00
20043;BME280;10182;52.896;6.496;2023-11-25T01:09:27;100961.16;;;1.94;100.00
20043;BME280;10182;52.896;6.496;2023-11-25T01:14:31;101014.47;;;2.78;100.00
20043;BME280;10182;52.896;6.496;2023-11-25T01:19:33;100987.91;;;3.12;100.00
20043;BME280;10182;52.896;6.496;2023-11-25T01:24:36;100971.41;;;3.05;100.00
20043;BME280;10182;52.896;6.496;2023-11-25T01:29:37;100974.22;;;2.90;100.00
20043;BME280;10182;52.896;6.496;2023-11-25T01:34:39;100980.41;;;2.81;100.00
20043;BME280;10182;52.896;6.496;2023-11-25T01:39:42;100976.25;;;2.62;100.00
20043;BME280;10182;52.896;6.496;2023-11-25T01:44:44;100985.91;;;2.55;100.00
20043;BME280;10182;52.896;6.496;2023-11-25T01:49:46;100991.19;;;2.50;100.00
20043;BME280;10182;52.896;6.496;2023-11-25T01:54:50;101003.25;;;2.67;100.00
20043;BME280;10182;52.896;6.496;2023-11-25T01:59:52;101014.41;;;2.81;100.00
20043;BME280;10182;52.896;6.496;2023-11-25T02:04:54;101006.31;;;3.08;100.00
20043;BME280;10182;52.896;6.496;2023-11-25T02:09:57;100993.19;;;3.11;100.00
20043;BME280;10182;52.896;6.496;2023-11-25T02:14:59;100984.50;;;3.07;100.00
20043;BME280;10182;52.896;6.496;2023-11-25T02:20:01;100980.13;;;3.09;100.00
20043;BME280;10182;52.896;6.496;2023-11-25T02:25:07;100974.91;;;3.06;100.00
20043;BME280;10182;52.896;6.496;2023-11-25T02:30:09;100973.06;;;3.16;100.00
20043;BME280;10182;52.896;6.496;2023-11-25T02:35:13;100956.50;;;3.12;100.00
20043;BME280;10182;52.896;6.496;2023-11-25T02:40:16;100948.75;;;3.04;100.00
20043;BME280;10182;52.896;6.496;2023-11-25T02:45:19;100945.34;;;2.96;100.00
20043;BME280;10182;52.896;6.496;2023-11-25T02:50:22;100936.69;;;2.90;100.00
20043;BME280;10182;52.896;6.496;2023-11-25T02:55:25;100945.44;;;2.87;100.00
20043;BME280;10182;52.896;6.496;2023-11-25T03:00:27;100924.59;;;2.81;100.00
20043;BME280;10182;52.896;6.496;2023-11-25T03:05:29;100924.66;;;2.75;100.00
20043;BME280;10182;52.896;6.496;2023-11-25T03:10:33;100927.41;;;2.65;100.00
20043;BME280;10182;52.896;6.496;2023-11-25T03:15:35;100927.44;;;2.61;100.00
20043;BME280;10182;52.896;6.496;2023-11-25T03:20:38;100931.84;;;2.56;100.00
20043;BME280;10182;52.896;6.496;2023-11-25T03:25:42;100928.34;;;2.57;100.00
20043;BME280;10182;52.896;6.496;2023-11-25T03:30:44;100924.81;;;2.61;100.00
20043;BME280;10182;52.896;6.496;2023-11-25T03:35:46;100922.13;;;2.70;100.00
20043;BME280;10182;52.896;6.496;2023-11-25T03:40:49;100910.53;;;2.93;100.00
20043;BME280;10182;52.896;6.496;2023-11-25T03:45:51;100902.16;;;3.31;100.00
20043;BME280;10182;52.896;6.496;2023-11-25T03:50:53;100907.13;;;3.48;100.00
20043;BME280;10182;52.896;6.496;2023-11-25T03:55:56;100900.13;;;3.50;100.00
20043;BME280;10182;52.896;6.496;2023-11-25T04:01:00;100915.66;;;3.63;100.00
20043;BME280;10182;52.896;6.496;2023-11-25T04:06:02;100914.88;;;3.58;100.00
20043;BME280;10182;52.896;6.496;2023-11-25T04:11:06;100905.34;;;3.52;100.00
20043;BME280;10182;52.896;6.496;2023-11-25T04:16:08;100888.81;;;3.48;100.00
20043;BME280;10182;52.896;6.496;2023-11-25T04:21:09;100895.97;;;3.37;100.00
20043;BME280;10182;52.896;6.496;2023-11-25T04:26:12;100880.16;;;3.45;100.00
20043;BME280;10182;52.896;6.496;2023-11-25T04:31:15;100871.38;;;3.47;100.00
20043;BME280;10182;52.896;6.496;2023-11-25T04:36:17;100874.97;;;3.38;100.00
20043;BME280;10182;52.896;6.496;2023-11-25T04:41:20;100882.13;;;3.27;100.00
20043;BME280;10182;52.896;6.496;2023-11-25T04:46:23;100867.44;;;3.17;100.00
20043;BME280;10182;52.896;6.496;2023-11-25T04:51:24;100858.78;;;3.13;100.00
20043;BME280;10182;52.896;6.496;2023-11-25T04:56:28;100858.06;;;3.00;100.00
20043;BME280;10182;52.896;6.496;2023-11-25T05:01:29;100856.44;;;2.92;100.00
20043;BME280;10182;52.896;6.496;2023-11-25T05:06:31;100854.78;;;2.83;100.00
20043;BME280;10182;52.896;6.496;2023-11-25T05:11:34;100863.56;;;2.80;100.00
20043;BME280;10182;52.896;6.496;2023-11-25T05:16:38;100857.31;;;2.91;100.00
20043;BME280;10182;52.896;6.496;2023-11-25T05:21:39;100859.00;;;2.96;100.00
20043;BME280;10182;52.896;6.496;2023-11-25T05:26:43;100912.97;;;3.05;100.00
20043;BME280;10182;52.896;6.496;2023-11-25T05:31:45;100905.91;;;3.12;100.00
20043;BME280;10182;52.896;6.496;2023-11-25T05:36:46;100898.97;;;3.09;100.00
20043;BME280;10182;52.896;6.496;2023-11-25T05:41:50;100883.28;;;3.06;100.00
20043;BME280;10182;52.896;6.496;2023-11-25T05:46:53;100884.03;;;3.14;100.00
20043;BME280;10182;52.896;6.496;2023-11-25T05:51:55;100867.53;;;3.11;100.00
20043;BME280;10182;52.896;6.496;2023-11-25T05:56:58;100870.25;;;3.03;100.00
20043;BME280;10182;52.896;6.496;2023-11-25T06:02:00;100862.50;;;2.97;100.00
20043;BME280;10182;52.896;6.496;2023-11-25T06:07:02;100848.63;;;2.87;100.00
20043;BME280;10182;52.896;6.496;2023-11-25T06:12:05;100846.13;;;2.81;100.00
20043;BME280;10182;52.896;6.496;2023-11-25T06:17:09;100848.81;;;2.73;100.00
20043;BME280;10182;52.896;6.496;2023-11-25T06:22:11;100841.03;;;2.68;100.00
20043;BME280;10182;52.896;6.496;2023-11-25T06:27:14;100843.56;;;2.78;100.00
20043;BME280;10182;52.896;6.496;2023-11-25T06:32:16;100847.75;;;2.88;100.00
20043;BME280;10182;52.896;6.496;2023-11-25T06:37:18;100843.34;;;2.93;100.00
20043;BME280;10182;52.896;6.496;2023-11-25T06:42:21;100865.09;;;2.98;100.00
20043;BME280;10182;52.896;6.496;2023-11-25T06:47:23;100844.91;;;3.07;100.00
20043;BME280;10182;52.896;6.496;2023-11-25T06:52:25;100827.50;;;3.02;100.00
20043;BME280;10182;52.896;6.496;2023-11-25T06:57:28;100826.72;;;2.96;100.00
20043;BME280;10182;52.896;6.496;2023-11-25T07:02:29;100818.16;;;2.86;100.00
20043;BME280;10182;52.896;6.496;2023-11-25T07:13:48;100822.53;;;2.82;100.00
20043;BME280;10182;52.896;6.496;2023-11-25T07:18:49;100830.38;;;2.84;100.00
20043;BME280;10182;52.896;6.496;2023-11-25T07:23:53;100825.94;;;2.89;100.00
20043;BME280;10182;52.896;6.496;2023-11-25T07:28:57;100836.91;;;3.14;100.00
20043;BME280;10182;52.896;6.496;2023-11-25T07:33:58;100828.91;;;3.25;100.00
20043;BME280;10182;52.896;6.496;2023-11-25T07:39:00;100836.63;;;3.34;100.00
20043;BME280;10182;52.896;6.496;2023-11-25T07:44:04;100862.72;;;3.42;100.00
20043;BME280;10182;52.896;6.496;2023-11-25T07:49:05;100910.31;;;3.70;100.00
20043;BME280;10182;52.896;6.496;2023-11-25T07:54:07;100860.88;;;4.00;100.00
20043;BME280;10182;52.896;6.496;2023-11-25T07:59:10;100839.03;;;4.01;100.00
20043;BME280;10182;52.896;6.496;2023-11-25T08:04:12;100822.84;;;4.26;100.00
20043;BME280;10182;52.896;6.496;2023-11-25T08:09:14;100825.44;;;4.29;100.00
20043;BME280;10182;52.896;6.496;2023-11-25T08:14:20;100833.28;;;4.29;100.00
20043;BME280;10182;52.896;6.496;2023-11-25T08:19:22;100836.88;;;4.23;100.00
20043;BME280;10182;52.896;6.496;2023-11-25T08:24:24;100826.41;;;4.22;100.00
20043;BME280;10182;52.896;6.496;2023-11-25T08:29:28;100833.28;;;4.28;100.00
20043;BME280;10182;52.896;6.496;2023-11-25T08:34:29;100848.59;;;4.51;100.00
20043;BME280;10182;52.896;6.496;2023-11-25T08:39:31;100837.88;;;4.62;100.00
20043;BME280;10182;52.896;6.496;2023-11-25T08:44:35;100837.81;;;4.66;100.00
20043;BME280;10182;52.896;6.496;2023-11-25T08:49:37;100831.63;;;4.69;100.00
20043;BME280;10182;52.896;6.496;2023-11-25T08:54:38;100839.53;;;4.66;100.00
20043;BME280;10182;52.896;6.496;2023-11-25T08:59:42;100854.41;;;4.67;100.00
20043;BME280;10182;52.896;6.496;2023-11-25T09:04:45;100864.94;;;4.65;100.00
20043;BME280;10182;52.896;6.496;2023-11-25T09:09:47;100866.63;;;4.68;100.00
20043;BME280;10182;52.896;6.496;2023-11-25T09:14:51;100846.72;;;4.57;100.00
20043;BME280;10182;52.896;6.496;2023-11-25T09:19:53;100850.47;;;4.44;100.00
20043;BME280;10182;52.896;6.496;2023-11-25T09:24:55;100848.78;;;4.42;100.00
20043;BME280;10182;52.896;6.496;2023-11-25T09:29:58;100853.81;;;4.54;100.00
20043;BME280;10182;52.896;6.496;2023-11-25T09:35:00;100855.38;;;4.63;100.00
20043;BME280;10182;52.896;6.496;2023-11-25T09:40:02;100860.91;;;4.91;100.00
20043;BME280;10182;52.896;6.496;2023-11-25T09:45:07;100864.78;;;5.14;100.00
20043;BME280;10182;52.896;6.496;2023-11-25T09:56:24;100855.44;;;5.39;100.00
20043;BME280;10182;52.896;6.496;2023-11-25T10:01:28;100840.38;;;5.48;100.00
20043;BME280;10182;52.896;6.496;2023-11-25T10:06:30;100837.59;;;5.54;100.00
20043;BME280;10182;52.896;6.496;2023-11-25T10:11:32;100822.72;;;5.53;100.00
20043;BME280;10182;52.896;6.496;2023-11-25T10:16:36;100825.16;;;5.62;100.00
20043;BME280;10182;52.896;6.496;2023-11-25T10:21:38;100832.75;;;5.73;100.00
20043;BME280;10182;52.896;6.496;2023-11-25T10:26:40;100815.75;;;5.88;100.00
20043;BME280;10182;52.896;6.496;2023-11-25T10:31:43;100823.94;;;6.10;100.00
20043;BME280;10182;52.896;6.496;2023-11-25T10:36:45;100822.72;;;6.23;100.00
20043;BME280;10182;52.896;6.496;2023-11-25T10:41:51;100813.19;;;6.18;100.00
20043;BME280;10182;52.896;6.496;2023-11-25T10:46:54;100817.47;;;6.23;100.00
20043;BME280;10182;52.896;6.496;2023-11-25T10:52:01;100823.47;;;6.27;100.00
20043;BME280;10182;52.896;6.496;2023-11-25T10:57:05;100827.00;;;6.26;100.00
20043;BME280;10182;52.896;6.496;2023-11-25T11:02:17;100819.56;;;6.42;100.00
20043;BME280;10182;52.896;6.496;2023-11-25T11:07:26;100827.00;;;6.28;100.00
20043;BME280;10182;52.896;6.496;2023-11-25T11:12:34;100816.84;;;6.45;100.00
20043;BME280;10182;52.896;6.496;2023-11-25T11:17:46;100804.09;;;6.61;100.00
20043;BME280;10182;52.896;6.496;2023-11-25T11:22:54;100811.91;;;6.64;100.00
20043;BME280;10182;52.896;6.496;2023-11-25T11:28:03;100809.28;;;6.94;100.00
20043;BME280;10182;52.896;6.496;2023-11-25T11:33:09;100790.50;;;7.05;100.00
20043;BME280;10182;52.896;6.496;2023-11-25T11:38:25;100795.25;;;6.93;100.00
20043;BME280;10182;52.896;6.496;2023-11-25T11:43:26;100803.69;;;7.05;100.00
20043;BME280;10182;52.896;6.496;2023-11-25T11:48:31;100806.41;;;7.02;100.00
20043;BME280;10182;52.896;6.496;2023-11-25T11:53:32;100811.53;;;6.78;100.00
20043;BME280;10182;52.896;6.496;2023-11-25T11:58:34;100807.69;;;6.58;100.00
20043;BME280;10182;52.896;6.496;2023-11-25T12:03:37;100808.38;;;6.65;100.00
20043;BME280;10182;52.896;6.496;2023-11-25T12:08:39;100813.53;;;6.68;100.00
20043;BME280;10182;52.896;6.496;2023-11-25T12:13:40;100815.00;;;6.78;100.00
20043;BME280;10182;52.896;6.496;2023-11-25T12:18:44;100815.75;;;6.84;100.00
20043;BME280;10182;52.896;6.496;2023-11-25T12:23:45;100823.72;;;6.81;100.00
20043;BME280;10182;52.896;6.496;2023-11-25T12:28:47;100819.63;;;7.00;100.00
20043;BME280;10182;52.896;6.496;2023-11-25T12:33:50;100820.50;;;7.01;100.00
20043;BME280;10182;52.896;6.496;2023-11-25T12:38:52;100836.78;;;6.54;100.00
20043;BME280;10182;52.896;6.496;2023-11-25T12:44:04;100842.50;;;6.04;100.00
20043;BME280;10182;52.896;6.496;2023-11-25T12:49:19;100877.41;;;5.74;100.00
20043;BME280;10182;52.896;6.496;2023-11-25T12:54:21;100891.19;;;5.47;100.00
20043;BME280;10182;52.896;6.496;2023-11-25T12:59:25;100891.75;;;5.22;100.00
20043;BME280;10182;52.896;6.496;2023-11-25T13:04:31;100892.94;;;5.08;100.00
20043;BME280;10182;52.896;6.496;2023-11-25T13:09:33;100897.38;;;5.05;100.00
20043;BME280;10182;52.896;6.496;2023-11-25T13:14:39;100901.03;;;4.98;100.00
20043;BME280;10182;52.896;6.496;2023-11-25T13:19:42;100919.56;;;4.90;100.00
20043;BME280;10182;52.896;6.496;2023-11-25T13:24:44;100913.28;;;4.97;100.00
20043;BME280;10182;52.896;6.496;2023-11-25T13:29:45;100929.00;;;4.99;100.00
20043;BME280;10182;52.896;6.496;2023-11-25T13:34:48;100921.19;;;4.96;100.00
20043;BME280;10182;52.896;6.496;2023-11-25T13:39:51;100922.19;;;4.90;100.00
20043;BME280;10182;52.896;6.496;2023-11-25T13:44:52;100925.72;;;4.87;100.00
20043;BME280;10182;52.896;6.496;2023-11-25T13:49:56;100946.56;;;4.97;100.00
20043;BME280;10182;52.896;6.496;2023-11-25T13:54:58;100942.56;;;5.19;100.00
20043;BME280;10182;52.896;6.496;2023-11-25T14:00:00;100958.19;;;5.27;100.00
20043;BME280;10182;52.896;6.496;2023-11-25T14:05:04;100955.22;;;5.42;100.00
20043;BME280;10182;52.896;6.496;2023-11-25T14:10:09;100950.91;;;5.40;100.00
20043;BME280;10182;52.896;6.496;2023-11-25T14:15:11;100958.53;;;5.52;100.00
20043;BME280;10182;52.896;6.496;2023-11-25T14:20:17;100957.44;;;5.61;100.00
20043;BME280;10182;52.896;6.496;2023-11-25T14:25:19;100971.78;;;5.46;100.00
20043;BME280;10182;52.896;6.496;2023-11-25T14:30:21;100966.44;;;5.49;100.00
20043;BME280;10182;52.896;6.496;2023-11-25T14:35:29;100961.53;;;5.34;100.00
20043;BME280;10182;52.896;6.496;2023-11-25T14:40:31;100956.53;;;5.21;100.00
20043;BME280;10182;52.896;6.496;2023-11-25T14:45:35;100965.50;;;5.11;100.00
20043;BME280;10182;52.896;6.496;2023-11-25T14:50:38;100975.22;;;5.07;100.00
20043;BME280;10182;52.896;6.496;2023-11-25T14:55:41;100984.88;;;5.05;100.00
20043;BME280;10182;52.896;6.496;2023-11-25T15:00:43;100989.31;;;5.03;100.00
20043;BME280;10182;52.896;6.496;2023-11-25T15:05:46;100993.03;;;4.91;100.00
20043;BME280;10182;52.896;6.496;2023-11-25T15:10:48;101002.50;;;4.99;100.00
20043;BME280;10182;52.896;6.496;2023-11-25T15:15:50;101009.63;;;4.94;100.00
20043;BME280;10182;52.896;6.496;2023-11-25T15:20:53;101018.88;;;4.66;100.00
20043;BME280;10182;52.896;6.496;2023-11-25T15:25:55;101022.44;;;4.62;100.00
20043;BME280;10182;52.896;6.496;2023-11-25T15:30:57;101034.09;;;4.46;100.00
20043;BME280;10182;52.896;6.496;2023-11-25T15:36:00;101032.44;;;4.38;100.00
20043;BME280;10182;52.896;6.496;2023-11-25T15:41:02;101043.03;;;4.32;100.00
20043;BME280;10182;52.896;6.496;2023-11-25T15:46:04;101047.47;;;4.29;100.00
20043;BME280;10182;52.896;6.496;2023-11-25T15:51:08;101053.69;;;4.21;100.00
20043;BME280;10182;52.896;6.496;2023-11-25T15:56:09;101047.59;;;4.19;100.00
20043;BME280;10182;52.896;6.496;2023-11-25T16:01:12;101057.41;;;4.06;100.00
20043;BME280;10182;52.896;6.496;2023-11-25T16:06:15;101054.97;;;3.94;100.00
20043;BME280;10182;52.896;6.496;2023-11-25T16:11:18;101057.75;;;3.83;100.00
20043;BME280;10182;52.896;6.496;2023-11-25T16:16:20;101064.06;;;3.68;100.00
20043;BME280;10182;52.896;6.496;2023-11-25T16:21:24;101068.53;;;3.60;100.00
20043;BME280;10182;52.896;6.496;2023-11-25T16:26:25;101091.28;;;3.55;100.00
20043;BME280;10182;52.896;6.496;2023-11-25T16:31:27;101091.28;;;3.55;100.00
20043;BME280;10182;52.896;6.496;2023-11-25T16:36:31;101099.19;;;3.52;100.00
20043;BME280;10182;52.896;6.496;2023-11-25T16:41:34;101105.31;;;3.51;100.00
20043;BME280;10182;52.896;6.496;2023-11-25T16:46:36;101100.06;;;3.51;100.00
20043;BME280;10182;52.896;6.496;2023-11-25T16:51:39;101114.09;;;3.47;100.00
20043;BME280;10182;52.896;6.496;2023-11-25T16:56:40;101118.47;;;3.46;100.00
20043;BME280;10182;52.896;6.496;2023-11-25T17:01:42;101129.75;;;3.50;100.00
20043;BME280;10182;52.896;6.496;2023-11-25T17:06:45;101148.91;;;3.56;100.00
20043;BME280;10182;52.896;6.496;2023-11-25T17:11:47;101160.22;;;3.60;100.00
20043;BME280;10182;52.896;6.496;2023-11-25T17:16:49;101171.44;;;3.75;100.00
20043;BME280;10182;52.896;6.496;2023-11-25T17:21:52;101178.38;;;3.76;100.00
20043;BME280;10182;52.896;6.496;2023-11-25T17:26:55;101191.50;;;3.74;100.00
20043;BME280;10182;52.896;6.496;2023-11-25T17:31:56;101191.47;;;3.79;100.00
20043;BME280;10182;52.896;6.496;2023-11-25T17:37:00;101186.22;;;3.80;100.00
20043;BME280;10182;52.896;6.496;2023-11-25T17:42:02;101188.84;;;3.77;100.00
20043;BME280;10182;52.896;6.496;2023-11-25T17:47:04;101178.41;;;3.74;100.00
20043;BME280;10182;52.896;6.496;2023-11-25T17:52:08;101188.13;;;3.64;100.00
20043;BME280;10182;52.896;6.496;2023-11-25T17:57:11;101198.72;;;3.52;100.00
20043;BME280;10182;52.896;6.496;2023-11-25T18:02:15;101204.94;;;3.42;100.00
20043;BME280;10182;52.896;6.496;2023-11-25T18:07:18;101211.13;;;3.33;100.00
20043;BME280;10182;52.896;6.496;2023-11-25T18:12:21;101216.41;;;3.27;100.00
20043;BME280;10182;52.896;6.496;2023-11-25T18:17:22;101219.94;;;3.22;100.00
20043;BME280;10182;52.896;6.496;2023-11-25T18:22:26;101238.31;;;3.16;100.00
20043;BME280;10182;52.896;6.496;2023-11-25T18:27:28;101253.19;;;3.16;100.00
20043;BME280;10182;52.896;6.496;2023-11-25T18:32:30;101273.13;;;3.32;100.00
20043;BME280;10182;52.896;6.496;2023-11-25T18:37:33;101278.28;;;3.43;100.00
20043;BME280;10182;52.896;6.496;2023-11-25T18:42:35;101266.03;;;3.45;100.00
20043;BME280;10182;52.896;6.496;2023-11-25T18:47:37;101284.28;;;3.54;100.00
20043;BME280;10182;52.896;6.496;2023-11-25T18:52:40;101259.84;;;3.52;100.00
20043;BME280;10182;52.896;6.496;2023-11-25T18:57:42;101234.53;;;3.53;100.00
20043;BME280;10182;52.896;6.496;2023-11-25T19:02:44;101240.69;;;3.49;100.00
20043;BME280;10182;52.896;6.496;2023-11-25T19:07:47;101246.81;;;3.45;100.00
20043;BME280;10182;52.896;6.496;2023-11-25T19:12:49;101246.09;;;3.29;100.00
20043;BME280;10182;52.896;6.496;2023-11-25T19:17:50;101253.19;;;3.13;100.00
20043;BME280;10182;52.896;6.496;2023-11-25T19:22:54;101255.03;;;3.00;100.00
20043;BME280;10182;52.896;6.496;2023-11-25T19:27:55;101276.09;;;2.80;100.00
20043;BME280;10182;52.896;6.496;2023-11-25T19:32:57;101284.91;;;2.68;100.00
20043;BME280;10182;52.896;6.496;2023-11-25T19:38:00;101295.34;;;2.69;100.00
20043;BME280;10182;52.896;6.496;2023-11-25T19:43:02;101300.66;;;2.57;100.00
20043;BME280;10182;52.896;6.496;2023-11-25T19:48:04;101313.66;;;2.66;100.00
20043;BME280;10182;52.896;6.496;2023-11-25T19:53:07;101318.88;;;2.73;100.00
20043;BME280;10182;52.896;6.496;2023-11-25T19:58:09;101328.47;;;2.74;100.00
20043;BME280;10182;52.896;6.496;2023-11-25T20:03:11;101329.28;;;2.85;100.00
20043;BME280;10182;52.896;6.496;2023-11-25T20:08:14;101315.28;;;2.92;100.00
20043;BME280;10182;52.896;6.496;2023-11-25T20:13:16;101310.88;;;2.97;100.00
20043;BME280;10182;52.896;6.496;2023-11-25T20:18:18;101310.00;;;2.98;100.00
20043;BME280;10182;52.896;6.496;2023-11-25T20:23:21;101309.16;;;2.93;100.00
20043;BME280;10182;52.896;6.496;2023-11-25T20:28:27;101314.44;;;2.84;100.00
20043;BME280;10182;52.896;6.496;2023-11-25T20:33:29;101326.69;;;2.80;100.00
20043;BME280;10182;52.896;6.496;2023-11-25T20:38:32;101330.19;;;2.79;100.00
20043;BME280;10182;52.896;6.496;2023-11-25T20:43:34;101335.44;;;2.78;100.00
20043;BME280;10182;52.896;6.496;2023-11-25T20:48:35;101340.66;;;2.76;100.00
20043;BME280;10182;52.896;6.496;2023-11-25T20:53:38;101344.19;;;2.66;100.00
20043;BME280;10182;52.896;6.496;2023-11-25T20:58:40;101344.25;;;2.52;100.00
20043;BME280;10182;52.896;6.496;2023-11-25T21:03:42;101346.03;;;2.41;100.00
20043;BME280;10182;52.896;6.496;2023-11-25T21:08:45;101333.88;;;2.27;100.00
20043;BME280;10182;52.896;6.496;2023-11-25T21:13:47;101352.19;;;2.16;100.00
20043;BME280;10182;52.896;6.496;2023-11-25T21:18:49;101346.13;;;2.02;100.00
20043;BME280;10182;52.896;6.496;2023-11-25T21:23:52;101358.31;;;2.00;100.00
20043;BME280;10182;52.896;6.496;2023-11-25T21:28:53;101355.69;;;1.95;100.00
20043;BME280;10182;52.896;6.496;2023-11-25T21:33:55;101349.59;;;1.96;100.00
20043;BME280;10182;52.896;6.496;2023-11-25T21:38:59;101353.09;;;1.92;100.00
20043;BME280;10182;52.896;6.496;2023-11-25T21:44:00;101349.63;;;1.90;100.00
20043;BME280;10182;52.896;6.496;2023-11-25T21:49:02;101356.59;;;1.85;100.00
20043;BME280;10182;52.896;6.496;2023-11-25T21:54:05;101352.25;;;1.79;100.00
20043;BME280;10182;52.896;6.496;2023-11-25T21:59:07;101350.50;;;1.69;100.00
20043;BME280;10182;52.896;6.496;2023-11-25T22:04:09;101361.81;;;1.66;100.00
20043;BME280;10182;52.896;6.496;2023-11-25T22:09:12;101368.78;;;1.60;100.00
20043;BME280;10182;52.896;6.496;2023-11-25T22:14:16;101389.69;;;1.54;100.00
20043;BME280;10182;52.896;6.496;2023-11-25T22:19:17;101388.81;;;1.55;100.00
20043;BME280;10182;52.896;6.496;2023-11-25T22:24:20;101374.88;;;1.56;100.00
20043;BME280;10182;52.896;6.496;2023-11-25T22:35:05;101370.53;;;1.67;100.00
20043;BME280;10182;52.896;6.496;2023-11-25T22:40:09;101381.84;;;1.64;100.00
20043;BME280;10182;52.896;6.496;2023-11-25T22:45:12;101382.69;;;1.57;100.00
20043;BME280;10182;52.896;6.496;2023-11-25T22:50:14;101382.69;;;1.56;100.00
20043;BME280;10182;52.896;6.496;2023-11-25T22:55:17;101380.09;;;1.48;100.00
20043;BME280;10182;52.896;6.496;2023-11-25T23:00:18;101379.22;;;1.43;100.00
20043;BME280;10182;52.896;6.496;2023-11-25T23:05:49;101387.94;;;1.34;100.00
20043;BME280;10182;52.896;6.496;2023-11-25T23:10:52;101388.75;;;1.27;100.00
20043;BME280;10182;52.896;6.496;2023-11-25T23:15:55;101385.28;;;1.23;100.00
20043;BME280;10182;52.896;6.496;2023-11-25T23:20:59;101389.66;;;1.29;100.00
20043;BME280;10182;52.896;6.496;2023-11-25T23:26:04;101393.16;;;1.34;100.00
20043;BME280;10182;52.896;6.496;2023-11-25T23:31:05;101390.53;;;1.39;100.00
20043;BME280;10182;52.896;6.496;2023-11-25T23:36:08;101391.41;;;1.34;100.00
20043;BME280;10182;52.896;6.496;2023-11-25T23:41:12;101387.03;;;1.27;100.00
20043;BME280;10182;52.896;6.496;2023-11-25T23:46:13;101399.19;;;1.24;100.00
20043;BME280;10182;52.896;6.496;2023-11-25T23:51:15;101388.72;;;1.17;100.00
20043;BME280;10182;52.896;6.496;2023-11-25T23:56:18;101391.34;;;1.14;100.00
